Daily Summary

Last 30 Days

Daily Data | Pacific/Honolulu
as of 8/12/22 6:12 PM HST
Date Daily Max Temp (°F) Time of Max Temp Daily Min Temp (°F) Time of Min Temp Daily Rain (In) Seasonal Rainfall (In) Wind Spd (mph) Daily Max Wind (mph) Time of Max Wind Max Wind Dir (°) Daily Solar Rad (Cal/cm2) Daily ETo (in) Dew Pt (°F) Max RH (%) Min RH (%) Max Press (inHg) Time of Max Press Min Press (inHg) Time of Min Press MinBV Day (V)
8/11/22 85.6 1401 78.3 2349 0.00 10.95 8.9 27.5 0823 NNE | 24 545 0.220 69.4 76 53 30.16 2237 30.07 1556 12.8
8/10/22 84.9 1258 78.8 0332 0.00 10.95 10.8 42.8 1121 NNE | 28 628 0.247 69.9 75 59 30.15 2254 29.99 1416 12.8
8/9/22 84.0 1421 78.1 0545 0.00 10.95 9.3 32.3 1345 NNE | 31 498 0.199 70.4 78 62 30.13 2319 30.01 1546 12.7
8/8/22 85.7 1143 77.4 0355 0.00 10.95 8.3 28.5 1647 NNE | 30 679 0.256 68.7 76 56 30.12 2215 30.01 1653 12.7
8/7/22 86.1 1121 78.6 0146 0.00 10.95 6.8 23.6 1422 NNE | 12 620 0.234 69.2 76 54 30.08 0939 29.98 0314 12.7
8/6/22 89.2 1524 75.6 0553 0.00 10.95 4.4 19.2 1010 NNE | 25 632 0.230 70.4 83 50 30.05 2210 29.94 1631 12.7
8/5/22 89.0 1525 73.8 0648 0.00 10.95 3.0 15.7 1447 ESE | 120 574 0.202 69.8 88 48 30.04 2159 29.93 1524 12.7
8/4/22 87.3 1445 74.5 0608 0.01 10.95 5.1 19.4 1511 NE | 35 599 0.217 68.9 82 51 30.04 2233 29.94 1638 12.7
8/3/22 83.8 1200 75.1 0445 0.00 10.94 7.5 26.6 1624 NNE | 21 617 0.222 68.2 78 58 30.03 0008 29.91 1624 12.7
8/2/22 84.6 1320 74.8 0705 0.05 10.94 8.1 27.0 1449 NE | 52 656 0.244 67.1 79 52 30.07 0003 29.96 1724 12.8
8/1/22 82.9 1347 74.9 0157 0.04 10.89 9.0 28.8 1107 NE | 34 407 0.181 67.2 80 54 30.13 0011 30.00 1608 12.8
7/31/22 83.4 1325 76.6 0725 0.02 10.85 9.8 33.8 1215 NNE | 29 551 0.226 67.1 78 51 30.16 0809 30.05 1739 12.7
7/30/22 86.0 1241 77.9 0238 0.00 10.83 7.7 25.6 2248 NNE | 30 458 0.187 70.2 78 60 30.15 2311 30.05 0500 12.7
7/29/22 86.8 1117 74.8 0611 0.00 10.83 5.0 22.2 1457 NE | 40 656 0.235 68.1 78 52 30.13 2222 30.01 1419 12.7
7/28/22 86.2 1356 75.4 0442 0.00 10.83 6.3 22.6 1903 NE | 36 676 0.246 67.4 76 52 30.11 2330 30.01 1635 12.7
7/27/22 84.5 1233 76.5 0541 0.00 10.83 7.5 28.5 1642 NE | 42 656 0.247 67.0 73 53 30.11 0823 29.99 1708 12.8
7/26/22 82.6 1434 76.4 0940 0.00 10.83 8.3 26.8 1614 NE | 41 468 0.179 69.0 81 65 30.14 0006 30.00 1735 12.7
7/25/22 84.5 1206 74.6 0118 0.02 10.83 9.0 29.1 1657 NE | 37 666 0.245 67.8 80 55 30.16 0912 30.04 1658 12.7
7/24/22 83.8 1118 75.6 2131 0.00 10.81 8.7 28.2 1830 NE | 41 677 0.255 66.5 77 55 30.15 2218 30.06 1645 12.7
7/23/22 84.0 1404 75.7 0416 0.00 10.81 8.8 27.0 1224 NNE | 31 658 0.249 67.0 75 55 30.15 2254 30.05 1648 12.7
7/22/22 83.5 1339 75.6 0448 0.03 10.81 8.9 28.8 1839 NE | 49 634 0.238 67.7 78 56 30.15 2300 30.04 1633 12.8
7/21/22 83.2 1402 74.8 0636 0.01 10.78 9.4 29.4 1726 NE | 34 586 0.213 68.7 81 59 30.14 2233 30.02 1628 12.7
7/20/22 81.8 1527 75.6 2347 0.05 10.77 7.6 28.6 1508 NNE | 20 496 0.187 68.0 80 61 30.11 2301 30.03 0302 12.8
7/19/22 84.0 1135 74.5 0129 0.03 10.72 9.5 31.0 1438 NNE | 23 552 0.218 67.5 79 55 30.14 0006 30.01 1518 12.8
7/18/22 81.6 1543 75.3 0633 0.00 10.69 8.7 26.6 1728 NE | 52 345 0.145 69.4 86 66 30.14 2251 30.05 1726 12.7
7/17/22 83.4 1607 77.1 0220 0.00 10.69 8.8 31.3 1043 ENE | 60 573 0.212 70.6 84 63 30.14 2304 30.02 1646 12.8
7/16/22 82.8 1303 77.1 2137 0.00 10.69 8.9 28.1 1233 NE | 36 409 0.168 70.6 84 66 30.12 0759 30.01 1539 12.8
7/15/22 83.2 1320 75.9 0900 0.01 10.69 8.6 26.2 2013 NE | 45 493 0.186 69.9 87 63 30.16 0828 30.05 1626 12.8
7/14/22 83.8 1331 75.6 0647 0.04 10.68 8.1 28.8 1624 NE | 36 514 0.189 70.2 87 63 30.16 1103 30.05 1701 12.8
7/13/22 82.4 1538 76.1 0424 0.02 10.64 9.6 29.2 1455 NE | 50 522 0.189 70.5 83 70 30.14 1113 30.03 1612 12.8
Max 89.2 - 78.8 - 0.05 10.95 10.8 42.8 - - 679 0.256 70.6 88 70 30.16 - 30.07 - 12.8
Avg - - - - - - 8.0 - - - - - 68.8 - - - - - - -
Min 81.6 - 73.8 - 0.00 10.64 3.0 15.7 - - 345 0.145 66.5 73 48 30.03 - 29.91 - 12.7